Terminal Aerodrome Forecast
Issued by NWS

Home | Current Version | Previous Version | Text Only | Print | Product List | Glossary On
Versions: 1 2 3 4 5 6 7 8 9 10 11 12 13 14 15
000
FTUS46 KSEW 281500 AAA
TAFBFI
TAF AMD
KBFI 281524Z 2815/2912 20010G18KT P6SM BKN022
     FM281800 21010G16KT P6SM BKN030
     FM290400 VRB03KT P6SM BKN060 BKN080 OVC180
     FM291000 VRB03KT P6SM OVC080=

USA.gov is the U.S. government's official web portal to all federal, state and local government web resources and services.